Doctortown, Georgia
Current Conditions -  °F | °C
As of 10:35 AM on Sunday 21 Dec 2014 (Local Time) from KJES Reporting Station
Drizzle Drizzle  
Wind Chill: 54°   Ceiling: 400
Heat Index: 54°   Visibility: 3mi
Dew Point: 52°   Wind: 5mph
Humidity: 94%   Direction: 40°NE
Pressure: 30.19"   Gusts: NA
Location:  31.5041°N, 81.8277°W
Report Text: KJES 211535Z AUTO 04004KT 3SM +DZ OVC004 12/11 A3019 RMK AO2
Loading
Personal Weather Stations






























Interactive Weather Map New forecast layout! Learn more

10-Day Weather Forecast

Advertisements
Track Severe Weather on mobile